Terminal Aerodrome Forecast
Issued by NWS

Home | Current Version | Previous Version | Text Only | Print | Product List | Glossary On
Versions: 1 2 3 4 5 6 7 8 9 10 11 12 13 14 15 16 17 18 19 20 21 22 23 24 25 26 27 28 29 30 31 32 33 34
000
FTUS43 KLOT 210500
TAFORD
TAF
KORD 210532Z 2106/2212 22005KT P6SM VCSH SCT050 BKN120
     FM211200 10006KT P6SM VCTS SCT035 BKN050CB
     FM211700 21010G18KT P6SM SCT030 BKN100
     FM220100 18005KT P6SM VCTS SCT040CB BKN100
      TEMPO 2201/2205 -TSRA BKN035CB
     FM220600 22007KT P6SM SCT050 BKN100 PROB30 2206/2212 5SM -TSRA
      BKN050CB=

USA.gov is the U.S. government's official web portal to all federal, state and local government web resources and services.